CST,Max TemperatureF,Mean TemperatureF,Min TemperatureF,Max Dew PointF,MeanDew PointF,Min DewpointF,Max Humidity, Mean Humidity, Min Humidity, Max Sea Level PressureIn, Mean Sea Level PressureIn, Min Sea Level PressureIn, Max VisibilityMiles, Mean VisibilityMiles, Min VisibilityMiles, Max Wind SpeedMPH, Mean Wind SpeedMPH, Max Gust SpeedMPH,PrecipitationIn, CloudCover, Events, WindDirDegrees
2014-1-1,22,16,10,19,15,5,93,85,78,30.34,30.26,30.20,7,2,0,16,9,23,T,8,Fog-Snow,38
2014-1-2,22,12,1,18,11,-7,86,79,67,30.45,30.23,30.13,10,4,0,17,11,23,0.00,7,Snow,5
2014-1-3,20,7,-7,12,3,-8,91,72,61,30.47,30.24,29.95,10,7,2,32,13,41,0.00,1,,199
2014-1-4,31,26,20,28,23,12,93,80,63,30.04,29.93,29.84,10,5,1,26,11,35,0.00,6,Rain-Snow,216
2014-1-5,28,13,-2,25,9,-13,93,78,60,30.09,30.03,29.95,9,2,0,30,17,37,0.00,8,Snow,342
2014-1-6,-2,-8,-15,-15,-21,-25,68,62,55,30.30,30.23,30.09,10,10,6,28,16,35,0.00,0,,276
2014-1-7,3,-4,-11,-4,-13,-20,82,67,57,30.37,30.32,30.28,10,10,10,15,8,21,0.00,0,,243
2014-1-8,17,5,-8,-1,-6,-11,83,68,45,30.57,30.46,30.35,10,10,8,10,2,12,0.00,0,,312
2014-1-9,27,10,-8,24,13,-11,89,83,71,30.58,30.34,30.15,9,4,1,9,3,12,T,7,Snow,155
2014-1-10,41,34,27,38,32,25,100,93,87,30.17,29.91,29.52,7,2,1,15,9,21,1.12,8,Rain,171
2014-1-11,41,36,31,39,32,25,100,86,75,29.79,29.53,29.42,10,7,1,18,10,25,0.05,8,Rain,265
2014-1-12,43,36,28,32,28,24,89,77,65,29.88,29.76,29.61,10,9,5,24,14,31,0.00,3,,206
2014-1-13,45,36,27,33,30,22,83,74,60,29.79,29.64,29.56,10,10,10,18,8,25,0.00,1,,237
2014-1-14,35,28,21,32,22,15,93,80,64,29.89,29.72,29.59,10,7,1,28,14,38,0.01,6,Snow,232
2014-1-15,36,26,15,16,10,7,86,62,33,30.10,30.00,29.85,10,9,3,14,10,21,T,4,Snow,262
2014-1-16,34,26,17,31,25,10,89,81,60,29.78,29.57,29.47,10,5,1,21,16,33,0.03,8,Snow,219
2014-1-17,19,16,12,12,8,3,81,71,62,30.00,29.90,29.74,10,8,2,16,10,22,T,7,Snow,268
2014-1-18,21,16,11,18,12,5,96,83,71,29.97,29.86,29.77,10,5,0,13,6,15,T,6,Fog-Snow,190
2014-1-19,38,25,11,28,18,7,88,75,64,29.88,29.70,29.55,10,9,6,22,10,32,0.00,1,,239
2014-1-20,35,24,12,27,21,8,86,81,70,30.12,29.91,29.62,10,8,1,21,9,26,T,8,Snow,19
2014-1-21,12,6,0,7,-4,-7,85,65,49,30.33,30.26,30.09,10,10,10,23,11,32,T,2,Snow,326
2014-1-22,15,8,0,7,1,-10,79,69,57,30.22,30.02,29.88,10,5,2,23,12,29,T,6,Snow,266
2014-1-23,11,4,-4,-3,-8,-13,66,62,54,30.63,30.49,30.23,10,10,10,21,13,28,T,2,,296
2014-1-24,29,12,-5,25,6,-14,93,69,51,30.55,29.93,29.47,10,8,1,30,15,40,T,6,Snow,213
2014-1-25,33,20,7,28,7,-7,89,60,37,29.90,29.63,29.39,10,10,10,26,15,37,T,3,Rain-Snow,292
2014-1-26,30,19,7,21,10,-5,87,73,54,29.84,29.57,29.40,10,7,1,33,13,43,0.00,7,Snow,247
2014-1-27,8,1,-7,-5,-14,-18,66,58,49,30.47,30.27,29.88,10,10,10,26,15,38,0.00,1,,286
2014-1-28,3,-4,-11,-7,-13,-18,71,62,52,30.48,30.40,30.28,10,10,10,16,8,22,0.00,0,,252
2014-1-29,23,12,1,7,-1,-7,69,55,38,30.26,30.17,30.01,10,10,10,21,11,25,0.00,0,,223
2014-1-30,33,27,21,27,18,6,86,68,47,29.99,29.82,29.66,10,9,2,28,16,38,T,5,Snow,215
2014-1-31,30,23,15,19,11,3,86,66,54,30.19,30.09,29.92,10,10,10,17,4,23,T,3,Snow,309